EmailTwitter


Observations de surface / Québec / LFBT

Régions: Québec | Canada | États-Unis | Europe | France | UK | Elsewhere
Station
Affichage
Infos & localisation pour LFBT | Aide pour décoder les METARs

Observations prises le 2017-02-24 à 10H00 UTC à TARBES/OSSUN, FR (LFBT)

Etat du ciel: partiellement nuageux.

Température: 8.0 Celsius

Point de rosée: 5.0 Celsius

Humidité relative: 81%

Vents: Ouest à 11 km/h ou 6 noeuds.

Pression au niveau moyen de la mer: 102.00 kilopascals.

Visibilité horizontale: 6.21 milles terrestres ou 9.94 kilomètres.

Hauteur du plafond: 640 mètres ( 2100 pieds ).

Observation METAR:

LFBT 241000Z AUTO 28006KT 9999 SCT013 BKN021 BKN043 08/05 Q1020 TEMPO 3000 -RA

OVC003=